sensor_id;sensor_type;location;lat;lon;timestamp;P1;durP1;ratioP1;P2;durP2;ratioP2
75820;SDS011;64454;51.984;9.838;2024-02-26T00:02:08;3.10;;;2.03;;
75820;SDS011;64454;51.984;9.838;2024-02-26T00:04:34;2.72;;;2.05;;
75820;SDS011;64454;51.984;9.838;2024-02-26T00:07:00;4.07;;;2.80;;
75820;SDS011;64454;51.984;9.838;2024-02-26T00:09:26;3.67;;;2.70;;
75820;SDS011;64454;51.984;9.838;2024-02-26T00:11:52;3.55;;;2.47;;
75820;SDS011;64454;51.984;9.838;2024-02-26T00:14:20;2.80;;;2.50;;
75820;SDS011;64454;51.984;9.838;2024-02-26T00:16:46;2.50;;;1.85;;
75820;SDS011;64454;51.984;9.838;2024-02-26T00:19:12;1.90;;;1.50;;
75820;SDS011;64454;51.984;9.838;2024-02-26T00:21:39;2.53;;;1.80;;
75820;SDS011;64454;51.984;9.838;2024-02-26T00:24:06;2.10;;;1.70;;
75820;SDS011;64454;51.984;9.838;2024-02-26T00:26:33;2.60;;;2.00;;
75820;SDS011;64454;51.984;9.838;2024-02-26T00:28:59;4.53;;;2.33;;
75820;SDS011;64454;51.984;9.838;2024-02-26T00:31:25;5.35;;;2.45;;
75820;SDS011;64454;51.984;9.838;2024-02-26T00:33:52;2.67;;;2.10;;
75820;SDS011;64454;51.984;9.838;2024-02-26T00:36:18;2.25;;;1.90;;
75820;SDS011;64454;51.984;9.838;2024-02-26T00:38:45;3.15;;;1.90;;
75820;SDS011;64454;51.984;9.838;2024-02-26T00:41:15;2.53;;;1.80;;
75820;SDS011;64454;51.984;9.838;2024-02-26T00:43:42;3.83;;;1.70;;
75820;SDS011;64454;51.984;9.838;2024-02-26T00:46:08;2.40;;;1.70;;
75820;SDS011;64454;51.984;9.838;2024-02-26T00:48:34;2.40;;;1.60;;
75820;SDS011;64454;51.984;9.838;2024-02-26T00:51:01;2.17;;;1.50;;
75820;SDS011;64454;51.984;9.838;2024-02-26T00:53:30;2.47;;;1.67;;
75820;SDS011;64454;51.984;9.838;2024-02-26T00:55:56;1.90;;;1.40;;
75820;SDS011;64454;51.984;9.838;2024-02-26T00:58:24;2.30;;;1.50;;
75820;SDS011;64454;51.984;9.838;2024-02-26T01:00:50;2.53;;;1.85;;
75820;SDS011;64454;51.984;9.838;2024-02-26T01:03:16;2.13;;;1.20;;
75820;SDS011;64454;51.984;9.838;2024-02-26T01:05:43;2.50;;;1.30;;
75820;SDS011;64454;51.984;9.838;2024-02-26T01:08:09;1.80;;;1.40;;
75820;SDS011;64454;51.984;9.838;2024-02-26T01:10:36;2.53;;;1.20;;
75820;SDS011;64454;51.984;9.838;2024-02-26T01:13:02;1.45;;;1.30;;
75820;SDS011;64454;51.984;9.838;2024-02-26T01:15:28;1.60;;;1.20;;
75820;SDS011;64454;51.984;9.838;2024-02-26T01:17:54;1.80;;;1.30;;
75820;SDS011;64454;51.984;9.838;2024-02-26T01:20:20;1.58;;;1.10;;
75820;SDS011;64454;51.984;9.838;2024-02-26T01:22:47;1.67;;;1.20;;
75820;SDS011;64454;51.984;9.838;2024-02-26T01:25:13;1.75;;;1.20;;
75820;SDS011;64454;51.984;9.838;2024-02-26T01:27:40;1.88;;;1.20;;
75820;SDS011;64454;51.984;9.838;2024-02-26T01:30:09;1.48;;;1.15;;
75820;SDS011;64454;51.984;9.838;2024-02-26T01:32:36;1.50;;;0.80;;
75820;SDS011;64454;51.984;9.838;2024-02-26T01:35:02;1.63;;;1.10;;
75820;SDS011;64454;51.984;9.838;2024-02-26T01:37:30;1.30;;;1.00;;
75820;SDS011;64454;51.984;9.838;2024-02-26T01:39:56;2.00;;;0.95;;
75820;SDS011;64454;51.984;9.838;2024-02-26T01:42:23;2.45;;;1.05;;
75820;SDS011;64454;51.984;9.838;2024-02-26T01:44:49;2.55;;;1.02;;
75820;SDS011;64454;51.984;9.838;2024-02-26T01:47:15;1.33;;;1.05;;
75820;SDS011;64454;51.984;9.838;2024-02-26T01:49:41;1.67;;;0.95;;
75820;SDS011;64454;51.984;9.838;2024-02-26T01:52:08;2.60;;;1.30;;
75820;SDS011;64454;51.984;9.838;2024-02-26T01:54:35;0.90;;;0.70;;
75820;SDS011;64454;51.984;9.838;2024-02-26T01:57:03;1.60;;;1.15;;
75820;SDS011;64454;51.984;9.838;2024-02-26T01:59:32;2.27;;;1.10;;
75820;SDS011;64454;51.984;9.838;2024-02-26T02:02:00;1.20;;;1.10;;
75820;SDS011;64454;51.984;9.838;2024-02-26T02:04:30;2.00;;;1.10;;
75820;SDS011;64454;51.984;9.838;2024-02-26T02:06:57;2.30;;;1.20;;
75820;SDS011;64454;51.984;9.838;2024-02-26T02:09:25;1.58;;;1.25;;
75820;SDS011;64454;51.984;9.838;2024-02-26T02:11:53;1.60;;;1.40;;
75820;SDS011;64454;51.984;9.838;2024-02-26T02:14:19;2.42;;;1.00;;
75820;SDS011;64454;51.984;9.838;2024-02-26T02:16:46;1.45;;;1.20;;
75820;SDS011;64454;51.984;9.838;2024-02-26T02:19:13;1.70;;;1.10;;
75820;SDS011;64454;51.984;9.838;2024-02-26T02:21:39;2.25;;;1.30;;
75820;SDS011;64454;51.984;9.838;2024-02-26T02:24:06;1.50;;;1.20;;
75820;SDS011;64454;51.984;9.838;2024-02-26T02:26:32;1.63;;;1.10;;
75820;SDS011;64454;51.984;9.838;2024-02-26T02:28:58;1.60;;;1.50;;
75820;SDS011;64454;51.984;9.838;2024-02-26T02:31:26;2.10;;;1.50;;
75820;SDS011;64454;51.984;9.838;2024-02-26T02:33:52;2.00;;;1.38;;
75820;SDS011;64454;51.984;9.838;2024-02-26T02:36:18;1.85;;;1.30;;
75820;SDS011;64454;51.984;9.838;2024-02-26T02:38:48;2.00;;;1.40;;
75820;SDS011;64454;51.984;9.838;2024-02-26T02:41:16;1.60;;;1.00;;
75820;SDS011;64454;51.984;9.838;2024-02-26T02:43:42;1.80;;;1.20;;
75820;SDS011;64454;51.984;9.838;2024-02-26T02:46:08;1.83;;;1.30;;
75820;SDS011;64454;51.984;9.838;2024-02-26T02:48:36;1.80;;;1.40;;
75820;SDS011;64454;51.984;9.838;2024-02-26T02:51:03;1.90;;;1.00;;
75820;SDS011;64454;51.984;9.838;2024-02-26T02:53:29;1.53;;;1.00;;
75820;SDS011;64454;51.984;9.838;2024-02-26T02:55:56;2.10;;;1.48;;
75820;SDS011;64454;51.984;9.838;2024-02-26T02:58:22;1.75;;;1.20;;
75820;SDS011;64454;51.984;9.838;2024-02-26T03:00:48;1.60;;;1.20;;
75820;SDS011;64454;51.984;9.838;2024-02-26T03:03:14;1.75;;;1.10;;
75820;SDS011;64454;51.984;9.838;2024-02-26T03:05:41;2.40;;;1.20;;
75820;SDS011;64454;51.984;9.838;2024-02-26T03:08:07;2.47;;;1.30;;
75820;SDS011;64454;51.984;9.838;2024-02-26T03:10:34;2.13;;;1.10;;
75820;SDS011;64454;51.984;9.838;2024-02-26T03:13:01;1.70;;;1.20;;
75820;SDS011;64454;51.984;9.838;2024-02-26T03:15:27;1.90;;;1.50;;
75820;SDS011;64454;51.984;9.838;2024-02-26T03:17:53;1.60;;;1.40;;
75820;SDS011;64454;51.984;9.838;2024-02-26T03:20:19;1.77;;;1.67;;
75820;SDS011;64454;51.984;9.838;2024-02-26T03:22:46;2.08;;;1.80;;
75820;SDS011;64454;51.984;9.838;2024-02-26T03:25:12;2.17;;;1.50;;
75820;SDS011;64454;51.984;9.838;2024-02-26T03:27:38;2.72;;;1.70;;
75820;SDS011;64454;51.984;9.838;2024-02-26T03:30:05;2.08;;;1.40;;
75820;SDS011;64454;51.984;9.838;2024-02-26T03:32:33;1.70;;;1.52;;
75820;SDS011;64454;51.984;9.838;2024-02-26T03:34:59;2.10;;;1.77;;
75820;SDS011;64454;51.984;9.838;2024-02-26T03:37:25;2.00;;;1.40;;
75820;SDS011;64454;51.984;9.838;2024-02-26T03:39:51;2.47;;;1.60;;
75820;SDS011;64454;51.984;9.838;2024-02-26T03:42:17;1.80;;;1.40;;
75820;SDS011;64454;51.984;9.838;2024-02-26T03:44:44;1.85;;;1.40;;
75820;SDS011;64454;51.984;9.838;2024-02-26T03:47:11;1.90;;;1.70;;
75820;SDS011;64454;51.984;9.838;2024-02-26T03:49:37;2.78;;;1.90;;
75820;SDS011;64454;51.984;9.838;2024-02-26T03:52:03;2.70;;;1.70;;
75820;SDS011;64454;51.984;9.838;2024-02-26T03:54:30;5.50;;;2.17;;
75820;SDS011;64454;51.984;9.838;2024-02-26T03:56:56;2.60;;;2.10;;
75820;SDS011;64454;51.984;9.838;2024-02-26T03:59:22;2.95;;;2.65;;
75820;SDS011;64454;51.984;9.838;2024-02-26T04:01:50;3.30;;;2.60;;
75820;SDS011;64454;51.984;9.838;2024-02-26T04:04:17;3.50;;;2.63;;
75820;SDS011;64454;51.984;9.838;2024-02-26T04:06:44;3.20;;;2.40;;
75820;SDS011;64454;51.984;9.838;2024-02-26T04:09:10;3.45;;;2.55;;
75820;SDS011;64454;51.984;9.838;2024-02-26T04:11:37;3.20;;;2.30;;
75820;SDS011;64454;51.984;9.838;2024-02-26T04:14:03;3.30;;;2.38;;
75820;SDS011;64454;51.984;9.838;2024-02-26T04:16:31;3.35;;;2.50;;
75820;SDS011;64454;51.984;9.838;2024-02-26T04:18:57;2.80;;;2.03;;
75820;SDS011;64454;51.984;9.838;2024-02-26T04:21:23;3.47;;;2.60;;
75820;SDS011;64454;51.984;9.838;2024-02-26T04:23:49;3.10;;;2.40;;
75820;SDS011;64454;51.984;9.838;2024-02-26T04:26:16;3.10;;;2.28;;
75820;SDS011;64454;51.984;9.838;2024-02-26T04:28:42;2.50;;;2.00;;
75820;SDS011;64454;51.984;9.838;2024-02-26T04:31:08;2.10;;;1.60;;
75820;SDS011;64454;51.984;9.838;2024-02-26T04:33:34;1.90;;;1.60;;
75820;SDS011;64454;51.984;9.838;2024-02-26T04:36:00;2.80;;;2.10;;
75820;SDS011;64454;51.984;9.838;2024-02-26T04:38:27;2.60;;;2.10;;
75820;SDS011;64454;51.984;9.838;2024-02-26T04:40:53;2.40;;;2.15;;
75820;SDS011;64454;51.984;9.838;2024-02-26T04:43:19;2.50;;;2.10;;
75820;SDS011;64454;51.984;9.838;2024-02-26T04:45:45;2.00;;;1.80;;
75820;SDS011;64454;51.984;9.838;2024-02-26T04:48:11;6.50;;;2.45;;
75820;SDS011;64454;51.984;9.838;2024-02-26T04:50:37;3.65;;;2.35;;
75820;SDS011;64454;51.984;9.838;2024-02-26T04:53:03;3.20;;;2.60;;
75820;SDS011;64454;51.984;9.838;2024-02-26T04:55:30;2.97;;;2.63;;
75820;SDS011;64454;51.984;9.838;2024-02-26T04:57:56;2.70;;;2.50;;
75820;SDS011;64454;51.984;9.838;2024-02-26T05:00:22;3.05;;;2.75;;
75820;SDS011;64454;51.984;9.838;2024-02-26T05:02:48;3.30;;;2.20;;
75820;SDS011;64454;51.984;9.838;2024-02-26T05:05:14;2.95;;;2.47;;
75820;SDS011;64454;51.984;9.838;2024-02-26T05:07:41;1.90;;;1.80;;
75820;SDS011;64454;51.984;9.838;2024-02-26T05:10:08;2.65;;;2.15;;
75820;SDS011;64454;51.984;9.838;2024-02-26T05:12:35;3.30;;;3.00;;
75820;SDS011;64454;51.984;9.838;2024-02-26T05:15:02;4.18;;;3.78;;
75820;SDS011;64454;51.984;9.838;2024-02-26T05:17:28;3.78;;;3.42;;
75820;SDS011;64454;51.984;9.838;2024-02-26T05:19:54;4.00;;;3.50;;
75820;SDS011;64454;51.984;9.838;2024-02-26T05:22:20;4.18;;;3.70;;
75820;SDS011;64454;51.984;9.838;2024-02-26T05:24:46;5.22;;;4.15;;
75820;SDS011;64454;51.984;9.838;2024-02-26T05:27:13;4.90;;;4.20;;
75820;SDS011;64454;51.984;9.838;2024-02-26T05:29:39;5.50;;;4.30;;
75820;SDS011;64454;51.984;9.838;2024-02-26T05:32:05;4.70;;;4.20;;
75820;SDS011;64454;51.984;9.838;2024-02-26T05:34:32;4.97;;;4.00;;
75820;SDS011;64454;51.984;9.838;2024-02-26T05:36:58;4.53;;;4.13;;
75820;SDS011;64454;51.984;9.838;2024-02-26T05:39:24;4.80;;;4.30;;
75820;SDS011;64454;51.984;9.838;2024-02-26T05:41:50;4.30;;;3.90;;
75820;SDS011;64454;51.984;9.838;2024-02-26T05:44:16;4.15;;;3.85;;
75820;SDS011;64454;51.984;9.838;2024-02-26T05:46:43;4.70;;;3.88;;
75820;SDS011;64454;51.984;9.838;2024-02-26T05:49:09;4.47;;;4.07;;
75820;SDS011;64454;51.984;9.838;2024-02-26T05:51:36;5.72;;;4.05;;
75820;SDS011;64454;51.984;9.838;2024-02-26T05:54:02;4.30;;;3.90;;
75820;SDS011;64454;51.984;9.838;2024-02-26T05:56:28;4.40;;;4.00;;
75820;SDS011;64454;51.984;9.838;2024-02-26T05:58:54;4.30;;;3.90;;
75820;SDS011;64454;51.984;9.838;2024-02-26T06:01:20;4.60;;;4.15;;
75820;SDS011;64454;51.984;9.838;2024-02-26T06:03:47;5.60;;;4.70;;
75820;SDS011;64454;51.984;9.838;2024-02-26T06:06:13;4.85;;;4.35;;
75820;SDS011;64454;51.984;9.838;2024-02-26T06:08:40;5.38;;;4.88;;
75820;SDS011;64454;51.984;9.838;2024-02-26T06:11:06;4.93;;;4.30;;
75820;SDS011;64454;51.984;9.838;2024-02-26T06:13:32;5.38;;;4.57;;
75820;SDS011;64454;51.984;9.838;2024-02-26T06:15:59;7.75;;;4.75;;
75820;SDS011;64454;51.984;9.838;2024-02-26T06:18:25;5.70;;;4.70;;
75820;SDS011;64454;51.984;9.838;2024-02-26T06:20:51;5.40;;;4.63;;
75820;SDS011;64454;51.984;9.838;2024-02-26T06:23:18;7.10;;;5.10;;
75820;SDS011;64454;51.984;9.838;2024-02-26T06:25:44;5.90;;;4.90;;
75820;SDS011;64454;51.984;9.838;2024-02-26T06:28:11;5.47;;;4.63;;
75820;SDS011;64454;51.984;9.838;2024-02-26T06:30:37;5.68;;;5.18;;
75820;SDS011;64454;51.984;9.838;2024-02-26T06:33:04;4.90;;;4.40;;
75820;SDS011;64454;51.984;9.838;2024-02-26T06:35:30;5.88;;;5.20;;
75820;SDS011;64454;51.984;9.838;2024-02-26T06:37:57;4.93;;;4.53;;
75820;SDS011;64454;51.984;9.838;2024-02-26T06:40:24;5.90;;;5.10;;
75820;SDS011;64454;51.984;9.838;2024-02-26T06:42:50;6.70;;;4.90;;
75820;SDS011;64454;51.984;9.838;2024-02-26T06:45:16;5.70;;;5.20;;
75820;SDS011;64454;51.984;9.838;2024-02-26T06:47:43;5.72;;;5.07;;
75820;SDS011;64454;51.984;9.838;2024-02-26T06:50:11;5.30;;;4.80;;
75820;SDS011;64454;51.984;9.838;2024-02-26T06:52:37;7.90;;;6.10;;
75820;SDS011;64454;51.984;9.838;2024-02-26T06:55:04;5.43;;;4.70;;
75820;SDS011;64454;51.984;9.838;2024-02-26T06:57:33;5.72;;;4.90;;
75820;SDS011;64454;51.984;9.838;2024-02-26T06:59:59;6.35;;;5.38;;
75820;SDS011;64454;51.984;9.838;2024-02-26T07:02:25;7.28;;;5.75;;
75820;SDS011;64454;51.984;9.838;2024-02-26T07:04:51;6.70;;;5.72;;
75820;SDS011;64454;51.984;9.838;2024-02-26T07:07:17;6.80;;;5.88;;
75820;SDS011;64454;51.984;9.838;2024-02-26T07:09:44;6.20;;;5.30;;
75820;SDS011;64454;51.984;9.838;2024-02-26T07:12:10;6.60;;;5.33;;
75820;SDS011;64454;51.984;9.838;2024-02-26T07:14:36;6.35;;;4.53;;
75820;SDS011;64454;51.984;9.838;2024-02-26T07:17:03;6.80;;;5.55;;
75820;SDS011;64454;51.984;9.838;2024-02-26T07:19:29;6.00;;;5.40;;
75820;SDS011;64454;51.984;9.838;2024-02-26T07:21:55;6.75;;;5.38;;
75820;SDS011;64454;51.984;9.838;2024-02-26T07:24:21;6.60;;;5.80;;
75820;SDS011;64454;51.984;9.838;2024-02-26T07:26:47;6.60;;;5.50;;
75820;SDS011;64454;51.984;9.838;2024-02-26T07:29:14;7.22;;;5.90;;
75820;SDS011;64454;51.984;9.838;2024-02-26T07:31:40;7.40;;;6.15;;
75820;SDS011;64454;51.984;9.838;2024-02-26T07:34:06;8.73;;;7.82;;
75820;SDS011;64454;51.984;9.838;2024-02-26T07:36:33;14.82;;;12.45;;
75820;SDS011;64454;51.984;9.838;2024-02-26T07:38:59;11.10;;;9.90;;
75820;SDS011;64454;51.984;9.838;2024-02-26T07:41:26;15.77;;;11.10;;
75820;SDS011;64454;51.984;9.838;2024-02-26T07:43:52;9.98;;;7.78;;
75820;SDS011;64454;51.984;9.838;2024-02-26T07:46:19;8.52;;;6.30;;
75820;SDS011;64454;51.984;9.838;2024-02-26T07:48:45;7.47;;;6.30;;
75820;SDS011;64454;51.984;9.838;2024-02-26T07:51:12;8.57;;;5.53;;
75820;SDS011;64454;51.984;9.838;2024-02-26T07:53:38;7.28;;;5.68;;
75820;SDS011;64454;51.984;9.838;2024-02-26T07:56:05;6.13;;;5.47;;
75820;SDS011;64454;51.984;9.838;2024-02-26T07:58:32;6.93;;;5.32;;
75820;SDS011;64454;51.984;9.838;2024-02-26T08:01:00;6.63;;;4.57;;
75820;SDS011;64454;51.984;9.838;2024-02-26T08:03:27;7.00;;;5.00;;
75820;SDS011;64454;51.984;9.838;2024-02-26T08:05:53;6.20;;;4.67;;
75820;SDS011;64454;51.984;9.838;2024-02-26T08:08:19;5.10;;;4.20;;
75820;SDS011;64454;51.984;9.838;2024-02-26T08:10:46;5.82;;;4.78;;
75820;SDS011;64454;51.984;9.838;2024-02-26T08:13:12;5.70;;;4.70;;
75820;SDS011;64454;51.984;9.838;2024-02-26T08:15:38;5.65;;;4.35;;
75820;SDS011;64454;51.984;9.838;2024-02-26T08:18:04;6.15;;;4.88;;
75820;SDS011;64454;51.984;9.838;2024-02-26T08:20:31;6.13;;;4.60;;
75820;SDS011;64454;51.984;9.838;2024-02-26T08:22:58;5.35;;;4.70;;
75820;SDS011;64454;51.984;9.838;2024-02-26T08:25:24;6.60;;;5.00;;
75820;SDS011;64454;51.984;9.838;2024-02-26T08:27:50;4.75;;;4.00;;
75820;SDS011;64454;51.984;9.838;2024-02-26T08:30:16;7.30;;;4.60;;
75820;SDS011;64454;51.984;9.838;2024-02-26T08:32:43;6.63;;;4.93;;
75820;SDS011;64454;51.984;9.838;2024-02-26T08:35:09;7.85;;;5.90;;
75820;SDS011;64454;51.984;9.838;2024-02-26T08:37:36;7.03;;;5.60;;
75820;SDS011;64454;51.984;9.838;2024-02-26T08:40:02;7.10;;;5.45;;
75820;SDS011;64454;51.984;9.838;2024-02-26T08:42:29;7.20;;;6.20;;
75820;SDS011;64454;51.984;9.838;2024-02-26T08:44:55;7.65;;;5.82;;
75820;SDS011;64454;51.984;9.838;2024-02-26T08:47:21;8.95;;;6.68;;
75820;SDS011;64454;51.984;9.838;2024-02-26T08:49:48;8.37;;;7.10;;
75820;SDS011;64454;51.984;9.838;2024-02-26T08:52:14;8.80;;;6.83;;
75820;SDS011;64454;51.984;9.838;2024-02-26T08:54:41;9.75;;;7.28;;
75820;SDS011;64454;51.984;9.838;2024-02-26T08:57:07;8.83;;;6.90;;
75820;SDS011;64454;51.984;9.838;2024-02-26T08:59:33;9.93;;;7.05;;
75820;SDS011;64454;51.984;9.838;2024-02-26T09:01:59;7.47;;;6.63;;
75820;SDS011;64454;51.984;9.838;2024-02-26T09:04:25;10.82;;;7.43;;
75820;SDS011;64454;51.984;9.838;2024-02-26T09:06:52;9.90;;;7.38;;
75820;SDS011;64454;51.984;9.838;2024-02-26T09:09:18;10.80;;;7.60;;
75820;SDS011;64454;51.984;9.838;2024-02-26T09:11:45;10.45;;;7.93;;
75820;SDS011;64454;51.984;9.838;2024-02-26T09:14:11;10.23;;;8.25;;
75820;SDS011;64454;51.984;9.838;2024-02-26T09:16:37;8.40;;;7.10;;
75820;SDS011;64454;51.984;9.838;2024-02-26T09:19:04;10.38;;;8.13;;
75820;SDS011;64454;51.984;9.838;2024-02-26T09:21:30;10.18;;;8.10;;
75820;SDS011;64454;51.984;9.838;2024-02-26T09:23:56;11.77;;;8.48;;
75820;SDS011;64454;51.984;9.838;2024-02-26T09:26:22;9.70;;;8.30;;
75820;SDS011;64454;51.984;9.838;2024-02-26T09:28:49;10.10;;;7.90;;
75820;SDS011;64454;51.984;9.838;2024-02-26T09:31:15;14.07;;;8.75;;
75820;SDS011;64454;51.984;9.838;2024-02-26T09:33:43;11.93;;;8.43;;
75820;SDS011;64454;51.984;9.838;2024-02-26T09:36:09;11.35;;;8.10;;
75820;SDS011;64454;51.984;9.838;2024-02-26T09:38:36;12.07;;;8.60;;
75820;SDS011;64454;51.984;9.838;2024-02-26T09:41:03;10.70;;;8.10;;
75820;SDS011;64454;51.984;9.838;2024-02-26T09:43:33;9.95;;;7.65;;
75820;SDS011;64454;51.984;9.838;2024-02-26T09:46:01;10.73;;;8.20;;
75820;SDS011;64454;51.984;9.838;2024-02-26T09:48:29;9.80;;;7.97;;
75820;SDS011;64454;51.984;9.838;2024-02-26T09:50:56;11.43;;;8.18;;
75820;SDS011;64454;51.984;9.838;2024-02-26T09:53:22;15.05;;;8.88;;
75820;SDS011;64454;51.984;9.838;2024-02-26T09:55:48;12.50;;;7.93;;
75820;SDS011;64454;51.984;9.838;2024-02-26T09:58:15;9.38;;;7.75;;
75820;SDS011;64454;51.984;9.838;2024-02-26T10:00:45;10.82;;;9.25;;
75820;SDS011;64454;51.984;9.838;2024-02-26T10:03:17;13.13;;;9.80;;
75820;SDS011;64454;51.984;9.838;2024-02-26T10:05:51;12.85;;;8.75;;
75820;SDS011;64454;51.984;9.838;2024-02-26T10:08:20;13.20;;;9.10;;
75820;SDS011;64454;51.984;9.838;2024-02-26T10:10:47;13.20;;;9.40;;
75820;SDS011;64454;51.984;9.838;2024-02-26T10:13:14;11.93;;;8.60;;
75820;SDS011;64454;51.984;9.838;2024-02-26T10:15:41;10.45;;;8.35;;
75820;SDS011;64454;51.984;9.838;2024-02-26T10:18:07;12.73;;;9.13;;
75820;SDS011;64454;51.984;9.838;2024-02-26T10:20:33;9.48;;;7.35;;
75820;SDS011;64454;51.984;9.838;2024-02-26T10:23:02;10.40;;;8.20;;
75820;SDS011;64454;51.984;9.838;2024-02-26T10:25:28;9.02;;;7.53;;
75820;SDS011;64454;51.984;9.838;2024-02-26T10:27:56;12.15;;;8.77;;
75820;SDS011;64454;51.984;9.838;2024-02-26T10:30:27;9.63;;;7.80;;
75820;SDS011;64454;51.984;9.838;2024-02-26T10:32:53;9.70;;;7.93;;
75820;SDS011;64454;51.984;9.838;2024-02-26T10:35:22;8.80;;;7.65;;
75820;SDS011;64454;51.984;9.838;2024-02-26T10:37:49;9.25;;;7.72;;
75820;SDS011;64454;51.984;9.838;2024-02-26T10:40:16;9.80;;;7.47;;
75820;SDS011;64454;51.984;9.838;2024-02-26T10:42:42;7.80;;;7.00;;
75820;SDS011;64454;51.984;9.838;2024-02-26T10:45:10;8.95;;;6.93;;
75820;SDS011;64454;51.984;9.838;2024-02-26T10:47:36;9.20;;;7.00;;
75820;SDS011;64454;51.984;9.838;2024-02-26T10:50:04;8.70;;;7.22;;
75820;SDS011;64454;51.984;9.838;2024-02-26T10:52:32;8.48;;;6.70;;
75820;SDS011;64454;51.984;9.838;2024-02-26T10:55:01;8.15;;;6.25;;
75820;SDS011;64454;51.984;9.838;2024-02-26T10:57:32;8.70;;;7.03;;
75820;SDS011;64454;51.984;9.838;2024-02-26T11:00:02;8.97;;;5.90;;
75820;SDS011;64454;51.984;9.838;2024-02-26T11:02:31;7.07;;;6.38;;
75820;SDS011;64454;51.984;9.838;2024-02-26T11:04:59;8.00;;;5.90;;
75820;SDS011;64454;51.984;9.838;2024-02-26T11:07:29;7.85;;;5.78;;
75820;SDS011;64454;51.984;9.838;2024-02-26T11:09:56;7.10;;;6.40;;
75820;SDS011;64454;51.984;9.838;2024-02-26T11:12:25;6.40;;;5.05;;
75820;SDS011;64454;51.984;9.838;2024-02-26T11:14:54;6.38;;;5.40;;
75820;SDS011;64454;51.984;9.838;2024-02-26T11:17:23;6.50;;;5.32;;
75820;SDS011;64454;51.984;9.838;2024-02-26T11:19:53;6.72;;;5.30;;
75820;SDS011;64454;51.984;9.838;2024-02-26T11:22:22;6.43;;;4.90;;
75820;SDS011;64454;51.984;9.838;2024-02-26T11:24:51;7.22;;;5.32;;
75820;SDS011;64454;51.984;9.838;2024-02-26T11:27:19;5.57;;;4.97;;
75820;SDS011;64454;51.984;9.838;2024-02-26T11:29:52;7.00;;;4.75;;
75820;SDS011;64454;51.984;9.838;2024-02-26T11:32:20;5.70;;;4.47;;
75820;SDS011;64454;51.984;9.838;2024-02-26T11:34:46;6.27;;;4.73;;
75820;SDS011;64454;51.984;9.838;2024-02-26T11:37:14;5.57;;;4.53;;
75820;SDS011;64454;51.984;9.838;2024-02-26T11:39:42;5.45;;;4.20;;
75820;SDS011;64454;51.984;9.838;2024-02-26T11:42:13;5.00;;;3.80;;
75820;SDS011;64454;51.984;9.838;2024-02-26T11:44:40;4.65;;;4.05;;
75820;SDS011;64454;51.984;9.838;2024-02-26T11:47:10;4.78;;;3.88;;
75820;SDS011;64454;51.984;9.838;2024-02-26T11:49:37;4.13;;;3.20;;
75820;SDS011;64454;51.984;9.838;2024-02-26T11:52:04;4.88;;;3.60;;
75820;SDS011;64454;51.984;9.838;2024-02-26T11:54:39;5.38;;;4.32;;
75820;SDS011;64454;51.984;9.838;2024-02-26T11:57:26;5.45;;;3.95;;
75820;SDS011;64454;51.984;9.838;2024-02-26T11:59:53;4.53;;;3.90;;
75820;SDS011;64454;51.984;9.838;2024-02-26T12:02:44;4.97;;;3.97;;
75820;SDS011;64454;51.984;9.838;2024-02-26T12:05:12;5.90;;;4.47;;
75820;SDS011;64454;51.984;9.838;2024-02-26T12:07:46;5.60;;;3.90;;
75820;SDS011;64454;51.984;9.838;2024-02-26T12:10:14;5.60;;;4.40;;
75820;SDS011;64454;51.984;9.838;2024-02-26T12:12:52;4.22;;;3.83;;
75820;SDS011;64454;51.984;9.838;2024-02-26T12:15:22;4.50;;;3.75;;
75820;SDS011;64454;51.984;9.838;2024-02-26T12:17:49;5.80;;;3.90;;
75820;SDS011;64454;51.984;9.838;2024-02-26T12:20:17;4.72;;;3.70;;
75820;SDS011;64454;51.984;9.838;2024-02-26T12:22:45;4.80;;;4.10;;
75820;SDS011;64454;51.984;9.838;2024-02-26T12:25:13;4.80;;;3.83;;
75820;SDS011;64454;51.984;9.838;2024-02-26T12:27:39;5.60;;;4.10;;
75820;SDS011;64454;51.984;9.838;2024-02-26T12:30:06;5.80;;;4.00;;
75820;SDS011;64454;51.984;9.838;2024-02-26T12:32:33;5.25;;;4.20;;
75820;SDS011;64454;51.984;9.838;2024-02-26T12:35:01;5.65;;;4.20;;
75820;SDS011;64454;51.984;9.838;2024-02-26T12:37:27;5.00;;;4.20;;
75820;SDS011;64454;51.984;9.838;2024-02-26T12:39:54;4.90;;;4.20;;
75820;SDS011;64454;51.984;9.838;2024-02-26T12:42:20;6.65;;;4.93;;
75820;SDS011;64454;51.984;9.838;2024-02-26T12:44:46;5.53;;;4.63;;
75820;SDS011;64454;51.984;9.838;2024-02-26T12:47:13;5.80;;;4.90;;
75820;SDS011;64454;51.984;9.838;2024-02-26T12:49:42;5.65;;;4.78;;
75820;SDS011;64454;51.984;9.838;2024-02-26T12:52:08;6.55;;;4.80;;
75820;SDS011;64454;51.984;9.838;2024-02-26T12:54:36;5.40;;;4.80;;
75820;SDS011;64454;51.984;9.838;2024-02-26T12:57:04;5.95;;;4.82;;
75820;SDS011;64454;51.984;9.838;2024-02-26T12:59:31;7.40;;;4.75;;
75820;SDS011;64454;51.984;9.838;2024-02-26T13:02:00;7.00;;;5.20;;
75820;SDS011;64454;51.984;9.838;2024-02-26T13:04:28;5.78;;;5.05;;
75820;SDS011;64454;51.984;9.838;2024-02-26T13:06:55;6.33;;;4.70;;
75820;SDS011;64454;51.984;9.838;2024-02-26T13:09:26;8.95;;;4.85;;
75820;SDS011;64454;51.984;9.838;2024-02-26T13:11:53;5.00;;;4.10;;
75820;SDS011;64454;51.984;9.838;2024-02-26T13:14:19;6.57;;;5.78;;
75820;SDS011;64454;51.984;9.838;2024-02-26T13:16:45;7.03;;;4.80;;
75820;SDS011;64454;51.984;9.838;2024-02-26T13:19:20;6.20;;;4.93;;
75820;SDS011;64454;51.984;9.838;2024-02-26T13:21:47;7.00;;;5.28;;
75820;SDS011;64454;51.984;9.838;2024-02-26T13:24:13;10.40;;;6.83;;
75820;SDS011;64454;51.984;9.838;2024-02-26T13:26:40;7.07;;;5.70;;
75820;SDS011;64454;51.984;9.838;2024-02-26T13:29:06;7.47;;;5.68;;
75820;SDS011;64454;51.984;9.838;2024-02-26T13:31:38;7.60;;;6.03;;
75820;SDS011;64454;51.984;9.838;2024-02-26T13:34:05;8.00;;;5.40;;
75820;SDS011;64454;51.984;9.838;2024-02-26T13:36:31;6.53;;;5.80;;
75820;SDS011;64454;51.984;9.838;2024-02-26T13:38:57;6.60;;;6.00;;
75820;SDS011;64454;51.984;9.838;2024-02-26T13:41:23;9.07;;;5.90;;
75820;SDS011;64454;51.984;9.838;2024-02-26T13:43:50;7.72;;;6.03;;
75820;SDS011;64454;51.984;9.838;2024-02-26T13:46:16;7.50;;;5.80;;
75820;SDS011;64454;51.984;9.838;2024-02-26T13:48:43;7.72;;;5.30;;
75820;SDS011;64454;51.984;9.838;2024-02-26T13:51:09;8.90;;;6.07;;
75820;SDS011;64454;51.984;9.838;2024-02-26T13:53:35;8.40;;;5.70;;
75820;SDS011;64454;51.984;9.838;2024-02-26T13:56:01;6.43;;;5.70;;
75820;SDS011;64454;51.984;9.838;2024-02-26T13:58:30;6.70;;;6.00;;
75820;SDS011;64454;51.984;9.838;2024-02-26T14:00:57;7.60;;;5.90;;
75820;SDS011;64454;51.984;9.838;2024-02-26T14:03:24;8.50;;;6.32;;
75820;SDS011;64454;51.984;9.838;2024-02-26T14:05:51;8.23;;;6.22;;
75820;SDS011;64454;51.984;9.838;2024-02-26T14:08:17;7.95;;;5.97;;
75820;SDS011;64454;51.984;9.838;2024-02-26T14:10:43;8.38;;;6.47;;
75820;SDS011;64454;51.984;9.838;2024-02-26T14:13:09;10.23;;;6.90;;
75820;SDS011;64454;51.984;9.838;2024-02-26T14:15:35;7.72;;;6.03;;
75820;SDS011;64454;51.984;9.838;2024-02-26T14:18:04;6.68;;;5.45;;
75820;SDS011;64454;51.984;9.838;2024-02-26T14:20:30;7.47;;;5.93;;
75820;SDS011;64454;51.984;9.838;2024-02-26T14:22:56;7.60;;;5.85;;
75820;SDS011;64454;51.984;9.838;2024-02-26T14:25:22;6.80;;;6.00;;
75820;SDS011;64454;51.984;9.838;2024-02-26T14:27:49;6.93;;;5.13;;
75820;SDS011;64454;51.984;9.838;2024-02-26T14:30:15;7.20;;;5.43;;
75820;SDS011;64454;51.984;9.838;2024-02-26T14:32:41;6.80;;;5.10;;
75820;SDS011;64454;51.984;9.838;2024-02-26T14:35:09;8.57;;;6.30;;
75820;SDS011;64454;51.984;9.838;2024-02-26T14:37:36;6.30;;;5.30;;
75820;SDS011;64454;51.984;9.838;2024-02-26T14:40:02;7.50;;;6.47;;
75820;SDS011;64454;51.984;9.838;2024-02-26T14:42:30;9.20;;;6.80;;
75820;SDS011;64454;51.984;9.838;2024-02-26T14:44:56;6.60;;;5.20;;